Time;durP1;ratioP1;P1;durP2;ratioP2;P2;SDS_P1;SDS_P2;PMS_P1;PMS_P2;Temp;Humidity;BMP_temperature;BMP_pressure;BME280_temperature;BME280_humidity;BME280_pressure;Samples;Min_cycle;Max_cycle;Signal;HPM_P1;HPM_P2
2023/12/11 00:01:36;;;;;;;20.55;3.97;;;10.80;99.90;;;;;;4141696;28;20034;-66
2023/12/11 00:03:37;;;;;;;19.33;3.90;;;10.80;99.90;;;;;;4141395;28;20030;-67
2023/12/11 00:05:41;;;;;;;23.95;4.45;;;10.80;99.90;;;;;;4142041;28;20030;-67
2023/12/11 00:07:42;;;;;;;22.98;4.38;;;10.80;99.90;;;;;;4143578;28;20068;-67
2023/12/11 00:09:42;;;;;;;15.95;3.90;;;10.80;99.90;;;;;;4138732;28;20403;-67
2023/12/11 00:11:43;;;;;;;19.77;3.35;;;10.80;99.90;;;;;;4137889;28;20065;-66
2023/12/11 00:13:44;;;;;;;16.70;4.13;;;10.90;99.90;;;;;;4145346;28;20041;-66
2023/12/11 00:15:44;;;;;;;27.88;4.82;;;10.80;99.90;;;;;;4138588;28;20037;-67
2023/12/11 00:17:45;;;;;;;27.95;4.78;;;10.90;99.90;;;;;;4140318;28;20133;-67
2023/12/11 00:19:45;;;;;;;30.95;5.03;;;10.80;99.90;;;;;;4139527;28;20038;-66
2023/12/11 00:21:46;;;;;;;21.17;4.32;;;10.90;99.90;;;;;;4137692;28;20058;-66
2023/12/11 00:23:46;;;;;;;23.20;5.13;;;10.80;99.90;;;;;;4143058;28;20087;-66
2023/12/11 00:25:47;;;;;;;22.13;3.67;;;10.80;99.90;;;;;;4141624;28;20034;-66
2023/12/11 00:27:48;;;;;;;15.50;3.35;;;10.80;99.90;;;;;;4146467;28;20034;-66
2023/12/11 00:29:49;;;;;;;20.13;4.05;;;10.80;99.90;;;;;;4144575;28;20457;-66
2023/12/11 00:31:50;;;;;;;16.25;4.05;;;10.80;99.90;;;;;;4144293;28;20456;-66
2023/12/11 00:33:50;;;;;;;17.38;3.95;;;10.80;99.90;;;;;;4146492;28;20087;-66
2023/12/11 00:35:51;;;;;;;18.67;3.55;;;10.90;99.90;;;;;;4142817;28;20065;-67
2023/12/11 00:37:52;;;;;;;25.92;5.40;;;10.80;99.90;;;;;;4143102;28;20037;-66
2023/12/11 00:39:52;;;;;;;23.45;4.85;;;10.80;99.90;;;;;;4152715;28;20040;-66
2023/12/11 00:41:53;;;;;;;17.90;4.22;;;10.90;99.90;;;;;;4142349;28;20068;-66
2023/12/11 00:43:54;;;;;;;17.05;4.18;;;10.80;99.90;;;;;;4143851;28;20038;-66
2023/12/11 00:45:54;;;;;;;24.13;4.57;;;10.80;99.90;;;;;;4143483;28;20417;-66
2023/12/11 00:47:55;;;;;;;21.75;4.22;;;10.80;99.90;;;;;;4143088;28;20402;-66
2023/12/11 00:49:55;;;;;;;26.02;5.43;;;10.90;99.90;;;;;;4144349;28;20077;-66
2023/12/11 00:51:56;;;;;;;21.25;3.88;;;10.90;99.90;;;;;;4145597;28;20470;-66
2023/12/11 00:53:57;;;;;;;18.33;4.70;;;10.80;99.90;;;;;;4146034;28;20109;-66
2023/12/11 00:55:57;;;;;;;21.42;4.93;;;10.80;99.90;;;;;;4145583;28;20410;-66
2023/12/11 00:58:01;;;;;;;14.93;4.43;;;10.90;99.90;;;;;;4140049;28;20133;-62
2023/12/11 01:00:02;;;;;;;18.38;3.78;;;10.90;99.90;;;;;;4130132;28;20475;-77
2023/12/11 01:02:03;;;;;;;17.17;4.28;;;10.90;99.90;;;;;;4138815;28;20785;-77
2023/12/11 01:04:03;;;;;;;15.82;3.55;;;10.80;99.90;;;;;;4146662;28;20038;-77
2023/12/11 01:06:04;;;;;;;17.52;4.35;;;10.90;99.90;;;;;;4142682;28;20121;-71
2023/12/11 01:08:05;;;;;;;18.17;4.63;;;10.90;99.90;;;;;;4146043;28;20398;-76
2023/12/11 01:10:06;;;;;;;27.42;5.20;;;10.90;99.90;;;;;;4141700;28;20042;-76
2023/12/11 01:12:06;;;;;;;18.30;4.43;;;10.90;99.90;;;;;;4145732;28;20483;-76
2023/12/11 01:14:07;;;;;;;22.95;4.53;;;10.90;99.90;;;;;;4144453;28;20040;-78
2023/12/11 01:16:08;;;;;;;24.38;4.72;;;10.90;99.90;;;;;;4145083;28;20030;-77
2023/12/11 01:18:09;;;;;;;20.98;4.22;;;10.90;99.90;;;;;;4145708;28;20038;-78
2023/12/11 01:20:10;;;;;;;23.52;4.43;;;10.90;99.90;;;;;;4137550;28;20415;-72
2023/12/11 01:22:10;;;;;;;30.23;5.32;;;10.90;99.90;;;;;;4129997;28;20490;-76
2023/12/11 01:24:12;;;;;;;22.15;4.75;;;10.80;99.90;;;;;;4145138;28;20072;-76
2023/12/11 01:26:12;;;;;;;23.88;4.78;;;10.80;99.90;;;;;;4132006;28;20034;-77
2023/12/11 01:28:13;;;;;;;24.40;4.90;;;10.80;99.90;;;;;;4140448;28;20041;-77
2023/12/11 01:30:13;;;;;;;20.20;4.28;;;10.80;99.90;;;;;;4137218;28;20038;-76
2023/12/11 01:32:14;;;;;;;22.63;5.35;;;10.80;99.90;;;;;;4141956;28;20038;-76
2023/12/11 01:34:15;;;;;;;24.85;5.28;;;10.80;99.90;;;;;;4141105;28;20031;-76
2023/12/11 01:36:15;;;;;;;30.23;4.55;;;10.80;99.90;;;;;;4135162;28;20038;-77
2023/12/11 01:38:16;;;;;;;22.27;4.72;;;10.80;99.90;;;;;;4138380;28;20045;-77
2023/12/11 01:40:16;;;;;;;20.70;4.38;;;10.80;99.90;;;;;;4130776;28;20066;-77
2023/12/11 01:42:17;;;;;;;18.13;5.03;;;10.80;99.90;;;;;;4129886;28;20026;-77
2023/12/11 01:44:17;;;;;;;23.60;5.05;;;10.80;99.90;;;;;;4136916;28;20544;-77
2023/12/11 01:46:18;;;;;;;23.73;4.68;;;10.80;99.90;;;;;;4139193;28;20030;-76
2023/12/11 01:48:19;;;;;;;20.20;4.55;;;10.80;99.90;;;;;;4144933;28;20033;-78
2023/12/11 01:50:20;;;;;;;23.95;5.18;;;10.80;99.90;;;;;;4144683;28;20111;-77
2023/12/11 01:52:21;;;;;;;15.73;4.18;;;10.80;99.90;;;;;;4138677;28;20463;-77
2023/12/11 01:54:22;;;;;;;25.83;4.55;;;10.80;99.90;;;;;;4143441;28;20065;-76
2023/12/11 01:56:22;;;;;;;20.33;4.53;;;10.80;99.90;;;;;;4141884;28;20053;-77
2023/12/11 01:58:24;;;;;;;26.40;5.00;;;10.80;99.90;;;;;;4142958;28;20058;-77
2023/12/11 02:00:25;;;;;;;26.08;5.03;;;10.80;99.90;;;;;;4135946;28;20443;-77
2023/12/11 02:02:25;;;;;;;17.00;3.90;;;10.80;99.90;;;;;;4138144;28;20034;-77
2023/12/11 02:04:26;;;;;;;23.65;4.40;;;10.80;99.90;;;;;;4138249;28;20033;-77
2023/12/11 02:06:26;;;;;;;22.27;4.55;;;10.80;99.90;;;;;;4127668;28;20034;-77
2023/12/11 02:08:27;;;;;;;20.80;4.25;;;10.80;99.90;;;;;;4132545;28;20396;-69
2023/12/11 02:10:27;;;;;;;17.25;4.00;;;10.80;99.90;;;;;;4134951;28;20034;-69
2023/12/11 02:12:28;;;;;;;26.50;4.53;;;10.80;99.90;;;;;;4125720;28;20405;-69
2023/12/11 02:14:29;;;;;;;15.75;3.50;;;10.80;99.90;;;;;;4135184;28;20537;-69
2023/12/11 02:16:29;;;;;;;19.95;4.60;;;10.80;99.90;;;;;;4134065;28;20045;-70
2023/12/11 02:18:30;;;;;;;22.70;4.68;;;10.80;99.90;;;;;;4137395;28;20049;-69
2023/12/11 02:20:30;;;;;;;22.50;4.80;;;10.80;99.90;;;;;;4138765;28;20069;-69
2023/12/11 02:22:31;;;;;;;21.05;4.68;;;10.90;99.90;;;;;;4137026;28;20030;-69
2023/12/11 02:24:35;;;;;;;24.65;4.53;;;10.90;99.90;;;;;;4140306;28;20124;-69
2023/12/11 02:26:36;;;;;;;20.38;4.25;;;10.80;99.90;;;;;;4135648;28;20534;-69
2023/12/11 02:28:36;;;;;;;27.67;4.72;;;10.80;99.90;;;;;;4139490;28;20037;-68
2023/12/11 02:30:50;;;;;;;22.15;3.92;;;10.80;99.90;;;;;;4132322;28;20195;-68
2023/12/11 02:32:53;;;;;;;20.13;4.57;;;10.80;99.90;;;;;;4139926;28;20088;-69
2023/12/11 02:34:54;;;;;;;28.23;4.93;;;10.80;99.90;;;;;;4135967;28;20512;-69
2023/12/11 02:36:54;;;;;;;21.65;4.47;;;10.80;99.90;;;;;;4134575;28;20042;-69
2023/12/11 02:38:55;;;;;;;24.67;4.45;;;10.80;99.90;;;;;;4139535;28;20257;-69
2023/12/11 02:40:56;;;;;;;18.10;3.83;;;10.80;99.90;;;;;;4138715;28;20474;-69
2023/12/11 02:42:56;;;;;;;25.00;5.10;;;10.80;99.90;;;;;;4135163;28;20514;-69
2023/12/11 02:44:57;;;;;;;28.85;5.35;;;10.80;99.90;;;;;;4142281;28;20072;-69
2023/12/11 02:46:57;;;;;;;27.42;5.28;;;10.80;99.90;;;;;;4140390;28;20038;-69
2023/12/11 02:48:58;;;;;;;22.65;5.30;;;10.80;99.90;;;;;;4142324;28;20129;-69
2023/12/11 02:50:58;;;;;;;27.10;4.95;;;10.80;99.90;;;;;;4141822;28;20046;-69
2023/12/11 02:53:01;;;;;;;26.73;5.22;;;10.80;99.90;;;;;;4136247;28;20180;-69
2023/12/11 02:55:02;;;;;;;21.77;4.57;;;10.80;99.90;;;;;;4140380;28;20030;-70
2023/12/11 02:57:03;;;;;;;21.27;4.80;;;10.80;99.90;;;;;;4139347;28;20483;-69
2023/12/11 02:59:03;;;;;;;17.20;4.32;;;10.80;99.90;;;;;;4144311;28;20054;-69
2023/12/11 03:01:04;;;;;;;24.30;4.95;;;10.80;99.90;;;;;;4140873;28;20061;-69
2023/12/11 03:03:07;;;;;;;22.17;4.05;;;10.80;99.90;;;;;;4141425;28;20034;-69
2023/12/11 03:05:07;;;;;;;46.80;6.65;;;10.80;99.90;;;;;;4143631;28;20500;-70
2023/12/11 03:07:08;;;;;;;20.52;3.90;;;10.80;99.90;;;;;;4144012;28;20037;-68
2023/12/11 03:09:08;;;;;;;20.48;3.72;;;10.80;99.90;;;;;;4142994;28;20041;-68
2023/12/11 03:11:10;;;;;;;24.15;4.60;;;10.80;99.90;;;;;;4137258;28;20403;-68
2023/12/11 03:13:10;;;;;;;34.58;4.68;;;10.80;99.90;;;;;;4142916;28;20030;-68
2023/12/11 03:15:11;;;;;;;17.38;4.13;;;10.80;99.90;;;;;;4143212;28;20046;-69
2023/12/11 03:17:11;;;;;;;26.10;4.82;;;10.80;99.90;;;;;;4138677;28;20125;-68
2023/12/11 03:19:12;;;;;;;21.75;4.65;;;10.80;99.90;;;;;;4137596;28;20081;-70
2023/12/11 03:21:13;;;;;;;20.55;3.67;;;10.80;99.90;;;;;;4127550;28;20550;-70
2023/12/11 03:23:13;;;;;;;19.00;3.70;;;10.80;99.90;;;;;;4139301;28;20042;-70
2023/12/11 03:25:14;;;;;;;13.68;3.15;;;10.80;99.90;;;;;;4134257;28;20105;-70
2023/12/11 03:27:15;;;;;;;24.05;4.10;;;10.80;99.90;;;;;;4139556;28;20152;-69
2023/12/11 03:29:16;;;;;;;18.95;3.40;;;10.80;99.90;;;;;;4134511;28;20051;-70
2023/12/11 03:31:16;;;;;;;15.95;3.58;;;10.80;99.90;;;;;;4160167;28;20188;-69
2023/12/11 03:33:17;;;;;;;18.80;3.75;;;10.80;99.90;;;;;;4144300;28;20073;-70
2023/12/11 03:35:17;;;;;;;21.55;4.10;;;10.70;99.90;;;;;;4143364;28;20037;-69
2023/12/11 03:37:18;;;;;;;19.85;4.03;;;10.70;99.90;;;;;;4136641;28;20117;-69
2023/12/11 03:39:18;;;;;;;22.13;4.07;;;10.70;99.90;;;;;;4143723;28;20042;-69
2023/12/11 03:41:19;;;;;;;18.25;3.33;;;10.70;99.90;;;;;;4143445;28;20040;-69
2023/12/11 03:43:20;;;;;;;23.75;4.57;;;10.70;99.90;;;;;;4140485;28;20121;-69
2023/12/11 03:45:20;;;;;;;21.17;4.13;;;10.70;99.90;;;;;;4138505;28;20386;-70
2023/12/11 03:47:24;;;;;;;20.63;4.43;;;10.60;99.90;;;;;;4138626;28;20042;-69
2023/12/11 03:49:27;;;;;;;19.15;3.58;;;10.60;99.90;;;;;;4138897;28;20524;-70
2023/12/11 03:51:27;;;;;;;15.07;3.55;;;10.60;99.90;;;;;;4142924;28;20057;-69
2023/12/11 03:53:28;;;;;;;22.10;4.05;;;10.60;99.90;;;;;;4144000;28;20026;-69
2023/12/11 03:55:28;;;;;;;14.27;3.67;;;10.60;99.90;;;;;;4146944;28;20050;-70
2023/12/11 03:57:29;;;;;;;18.95;4.03;;;10.60;99.90;;;;;;4145524;28;20124;-70
2023/12/11 03:59:29;;;;;;;25.48;4.47;;;10.60;99.90;;;;;;4138223;28;20037;-70
2023/12/11 04:01:30;;;;;;;20.27;4.32;;;10.70;99.90;;;;;;4136230;28;20027;-70
2023/12/11 04:03:31;;;;;;;21.45;4.10;;;10.60;99.90;;;;;;4137889;28;20467;-69
2023/12/11 04:05:31;;;;;;;17.95;4.22;;;10.70;99.90;;;;;;4142106;28;20054;-70
2023/12/11 04:07:32;;;;;;;24.90;4.20;;;10.70;99.90;;;;;;4142340;28;20120;-70
2023/12/11 04:09:33;;;;;;;21.05;4.68;;;10.70;99.90;;;;;;4134678;28;20057;-70
2023/12/11 04:11:34;;;;;;;16.95;3.72;;;10.70;99.90;;;;;;4131377;28;20121;-70
2023/12/11 04:13:35;;;;;;;18.87;3.57;;;10.70;99.90;;;;;;4133546;28;20038;-70
2023/12/11 04:15:36;;;;;;;17.13;3.83;;;10.70;99.90;;;;;;4139569;28;20082;-69
2023/12/11 04:17:37;;;;;;;19.00;4.13;;;10.70;99.90;;;;;;4134137;28;20034;-69
2023/12/11 04:19:37;;;;;;;14.80;3.40;;;10.60;99.90;;;;;;4134725;28;20138;-70
2023/12/11 04:21:38;;;;;;;18.20;3.50;;;10.60;99.90;;;;;;4143636;28;20038;-70
2023/12/11 04:23:38;;;;;;;17.20;3.30;;;10.50;99.90;;;;;;4136873;28;20097;-69
2023/12/11 04:25:39;;;;;;;16.17;3.00;;;10.50;99.90;;;;;;4139099;28;20046;-70
2023/12/11 04:27:39;;;;;;;15.45;3.55;;;10.50;99.90;;;;;;4139052;28;20478;-69
2023/12/11 04:29:40;;;;;;;15.80;3.38;;;10.50;99.90;;;;;;4132268;28;20433;-66
2023/12/11 04:31:41;;;;;;;14.77;3.58;;;10.50;99.90;;;;;;4137107;28;20045;-66
2023/12/11 04:33:41;;;;;;;17.40;3.35;;;10.50;99.90;;;;;;4139719;28;20049;-66
2023/12/11 04:35:42;;;;;;;17.10;3.63;;;10.50;99.90;;;;;;4139096;28;20044;-67
2023/12/11 04:37:42;;;;;;;31.50;4.53;;;10.50;99.90;;;;;;4145718;28;20069;-66
2023/12/11 04:39:43;;;;;;;14.18;3.65;;;10.50;99.90;;;;;;4143880;28;20030;-66
2023/12/11 04:41:44;;;;;;;29.90;5.07;;;10.50;99.90;;;;;;4144613;28;20085;-66
2023/12/11 04:43:44;;;;;;;22.35;3.70;;;10.50;99.90;;;;;;4146819;28;20459;-66
2023/12/11 04:45:45;;;;;;;32.83;5.13;;;10.50;99.90;;;;;;4145592;28;20084;-66
2023/12/11 04:47:46;;;;;;;21.20;4.70;;;10.50;99.90;;;;;;4144261;28;20045;-65
2023/12/11 04:49:47;;;;;;;16.50;3.38;;;10.50;99.90;;;;;;4146022;28;20395;-65
2023/12/11 04:51:47;;;;;;;21.13;3.85;;;10.50;99.90;;;;;;4141549;28;20045;-66
2023/12/11 04:53:48;;;;;;;16.85;3.78;;;10.50;99.90;;;;;;4143002;28;20034;-65
2023/12/11 04:55:48;;;;;;;16.52;3.80;;;10.50;99.90;;;;;;4142257;28;20402;-65
2023/12/11 04:57:49;;;;;;;18.05;3.33;;;10.50;99.90;;;;;;4141558;28;20455;-66
2023/12/11 04:59:49;;;;;;;13.48;3.15;;;10.50;99.90;;;;;;4146018;28;20544;-65
2023/12/11 05:01:50;;;;;;;14.45;3.25;;;10.50;99.90;;;;;;4139729;28;20120;-65
2023/12/11 05:03:51;;;;;;;14.93;3.05;;;10.40;99.90;;;;;;4143342;28;20474;-65
2023/12/11 05:05:51;;;;;;;17.65;3.33;;;10.40;99.90;;;;;;4142777;28;20048;-65
2023/12/11 05:07:52;;;;;;;10.95;2.80;;;10.40;99.90;;;;;;4144649;28;20505;-66
2023/12/11 05:09:52;;;;;;;18.33;3.10;;;10.40;99.90;;;;;;4139281;28;20410;-65
2023/12/11 05:11:53;;;;;;;13.75;3.45;;;10.40;99.90;;;;;;4138361;28;20084;-66
2023/12/11 05:13:53;;;;;;;18.05;4.15;;;10.40;99.90;;;;;;4141412;28;20048;-66
2023/12/11 05:15:55;;;;;;;20.85;3.70;;;10.40;99.90;;;;;;4136976;28;20035;-66
2023/12/11 05:17:55;;;;;;;19.55;3.55;;;10.30;99.90;;;;;;4134757;28;20399;-65
2023/12/11 05:19:56;;;;;;;21.70;3.80;;;10.40;99.90;;;;;;4134781;28;20049;-66
2023/12/11 05:21:59;;;;;;;13.07;2.97;;;10.30;99.90;;;;;;4130635;28;20038;-65
2023/12/11 05:24:00;;;;;;;19.92;3.60;;;10.30;99.90;;;;;;4137238;28;20038;-66
2023/12/11 05:26:01;;;;;;;14.52;3.45;;;10.30;99.90;;;;;;4139393;28;20121;-65
2023/12/11 05:28:01;;;;;;;19.33;3.88;;;10.30;99.90;;;;;;4136899;28;20037;-66
2023/12/11 05:30:02;;;;;;;14.98;3.20;;;10.30;99.90;;;;;;4144479;28;20462;-66
2023/12/11 05:32:03;;;;;;;18.02;3.28;;;10.30;99.90;;;;;;4135113;28;20452;-66
2023/12/11 05:34:03;;;;;;;17.52;3.28;;;10.30;99.90;;;;;;4135240;28;20081;-66
2023/12/11 05:36:04;;;;;;;14.43;3.15;;;10.40;99.90;;;;;;4138770;28;20517;-66
2023/12/11 05:38:05;;;;;;;14.60;3.40;;;10.40;99.90;;;;;;4140616;28;20125;-75
2023/12/11 05:40:07;;;;;;;16.55;3.83;;;10.40;99.90;;;;;;4133311;28;20038;-67
2023/12/11 05:42:07;;;;;;;13.20;3.00;;;10.40;99.90;;;;;;4137297;28;20041;-69
2023/12/11 05:44:08;;;;;;;17.23;3.42;;;10.40;99.90;;;;;;4137669;28;20626;-69
2023/12/11 05:46:09;;;;;;;14.85;3.05;;;10.40;99.90;;;;;;4139458;28;20072;-70
2023/12/11 05:48:09;;;;;;;14.55;3.65;;;10.40;99.90;;;;;;4144916;28;20034;-69
2023/12/11 05:50:11;;;;;;;20.00;4.03;;;10.40;99.90;;;;;;4136593;28;20058;-70
2023/12/11 05:52:11;;;;;;;18.42;4.05;;;10.40;99.90;;;;;;4138741;28;20084;-69
2023/12/11 05:54:12;;;;;;;16.48;3.25;;;10.40;99.90;;;;;;4138030;28;20061;-69
2023/12/11 05:56:12;;;;;;;17.42;3.67;;;10.50;99.90;;;;;;4142362;28;20054;-69
2023/12/11 05:58:13;;;;;;;15.32;3.72;;;10.40;99.90;;;;;;4134753;28;20446;-69
2023/12/11 06:00:14;;;;;;;16.98;3.25;;;10.40;99.90;;;;;;4144266;28;20034;-68
2023/12/11 06:02:14;;;;;;;23.95;4.47;;;10.40;99.90;;;;;;4137159;28;20034;-69
2023/12/11 06:04:15;;;;;;;20.85;3.60;;;10.50;99.90;;;;;;4140103;28;20109;-68
2023/12/11 06:06:16;;;;;;;17.23;2.72;;;10.50;99.90;;;;;;4138426;28;20052;-69
2023/12/11 06:08:16;;;;;;;25.02;4.25;;;10.50;99.90;;;;;;4146866;28;20084;-68
2023/12/11 06:10:17;;;;;;;17.88;3.80;;;10.50;99.90;;;;;;4135949;28;20477;-68
2023/12/11 06:12:17;;;;;;;19.58;4.03;;;10.50;99.90;;;;;;4136568;28;20034;-69
2023/12/11 06:14:18;;;;;;;19.08;4.10;;;10.50;99.90;;;;;;4136199;28;20038;-69
2023/12/11 06:16:20;;;;;;;16.85;3.50;;;10.50;99.90;;;;;;4137545;28;20049;-69
2023/12/11 06:18:20;;;;;;;21.73;4.53;;;10.50;99.90;;;;;;4141997;28;20073;-69
2023/12/11 06:20:21;;;;;;;14.15;3.45;;;10.50;99.90;;;;;;4134900;28;20490;-69
2023/12/11 06:22:21;;;;;;;18.60;4.05;;;10.50;99.90;;;;;;4139691;28;20448;-70
2023/12/11 06:24:22;;;;;;;21.90;4.25;;;10.50;99.90;;;;;;4140478;28;20137;-69
2023/12/11 06:26:31;;;;;;;15.98;3.90;;;10.50;99.90;;;;;;4134768;28;20860;-69
2023/12/11 06:28:31;;;;;;;17.40;4.00;;;10.50;99.90;;;;;;4140274;28;20041;-69
2023/12/11 06:30:32;;;;;;;17.33;3.72;;;10.50;99.90;;;;;;4135245;28;20038;-69
2023/12/11 06:32:33;;;;;;;21.42;4.10;;;10.50;99.90;;;;;;4132916;28;20034;-73
2023/12/11 06:34:34;;;;;;;22.35;4.63;;;10.50;99.90;;;;;;4137255;28;20488;-71
2023/12/11 06:36:34;;;;;;;22.42;4.68;;;10.50;99.90;;;;;;4139818;28;20037;-69
2023/12/11 06:38:35;;;;;;;23.35;4.07;;;10.50;99.90;;;;;;4137253;28;20042;-70
2023/12/11 06:40:36;;;;;;;21.92;3.72;;;10.50;99.90;;;;;;4130882;28;20035;-69
2023/12/11 06:42:37;;;;;;;15.80;3.88;;;10.40;99.90;;;;;;4141013;28;20041;-69
2023/12/11 06:44:38;;;;;;;14.85;3.97;;;10.40;99.90;;;;;;4139091;28;20434;-68
2023/12/11 06:46:39;;;;;;;13.75;3.00;;;10.40;99.90;;;;;;4139333;28;20042;-69
2023/12/11 06:48:39;;;;;;;16.75;3.45;;;10.40;99.90;;;;;;4139664;28;20025;-68
2023/12/11 06:50:41;;;;;;;19.42;3.97;;;10.40;99.90;;;;;;4143206;28;20495;-70
2023/12/11 06:52:41;;;;;;;19.55;3.97;;;10.40;99.90;;;;;;4139255;28;20521;-69
2023/12/11 06:54:42;;;;;;;19.20;3.92;;;10.40;99.90;;;;;;4141448;28;20037;-69
2023/12/11 06:56:43;;;;;;;17.27;3.60;;;10.40;99.90;;;;;;4139948;28;20053;-69
2023/12/11 06:58:43;;;;;;;20.05;3.72;;;10.40;99.90;;;;;;4137660;28;20050;-69
2023/12/11 07:00:44;;;;;;;15.23;3.55;;;10.40;99.90;;;;;;4138589;28;20088;-68
2023/12/11 07:02:44;;;;;;;22.27;3.80;;;10.40;99.90;;;;;;4136816;28;20501;-69
2023/12/11 07:04:45;;;;;;;23.73;4.97;;;10.40;99.90;;;;;;4140941;28;20065;-68
2023/12/11 07:06:46;;;;;;;19.45;3.75;;;10.40;99.90;;;;;;4133123;28;20034;-69
2023/12/11 07:08:46;;;;;;;15.00;3.20;;;10.40;99.90;;;;;;4136789;28;20030;-69
2023/12/11 07:10:47;;;;;;;19.15;3.78;;;10.40;99.90;;;;;;4138541;28;20036;-68
2023/12/11 07:12:49;;;;;;;16.15;3.80;;;10.40;99.90;;;;;;4141195;28;20034;-67
2023/12/11 07:14:49;;;;;;;22.40;3.40;;;10.40;99.90;;;;;;4138843;28;20479;-67
2023/12/11 07:16:50;;;;;;;24.48;3.88;;;10.50;99.90;;;;;;4139836;28;20280;-67
2023/12/11 07:18:51;;;;;;;24.90;3.90;;;10.50;99.90;;;;;;4136741;28;20042;-67
2023/12/11 07:20:52;;;;;;;14.40;4.05;;;10.50;99.90;;;;;;4138899;28;20048;-67
2023/12/11 07:22:54;;;;;;;25.65;3.95;;;10.50;99.90;;;;;;4136107;28;20035;-67
2023/12/11 07:24:55;;;;;;;15.45;3.83;;;10.50;99.90;;;;;;4153252;28;20057;-67
2023/12/11 07:26:57;;;;;;;34.88;5.57;;;10.50;99.90;;;;;;4137604;28;20041;-67
2023/12/11 07:28:58;;;;;;;16.85;3.38;;;10.50;99.90;;;;;;4135018;28;20513;-67
2023/12/11 07:30:58;;;;;;;14.68;4.20;;;10.50;99.90;;;;;;4135034;28;20042;-67
2023/12/11 07:32:59;;;;;;;21.52;3.60;;;10.50;99.90;;;;;;4132354;28;20042;-67
2023/12/11 07:35:00;;;;;;;13.43;2.70;;;10.50;99.90;;;;;;4134418;28;20493;-67
2023/12/11 07:37:01;;;;;;;16.55;2.97;;;10.50;99.90;;;;;;4134282;28;20112;-66
2023/12/11 07:39:02;;;;;;;18.33;3.63;;;10.50;99.90;;;;;;4132171;28;20065;-67
2023/12/11 07:41:03;;;;;;;17.17;3.78;;;10.50;99.90;;;;;;4133094;28;20528;-66
2023/12/11 07:43:05;;;;;;;15.40;3.53;;;10.50;99.90;;;;;;4130767;28;20030;-67
2023/12/11 07:45:06;;;;;;;22.30;4.35;;;10.50;99.90;;;;;;4138449;28;20169;-67
2023/12/11 07:47:07;;;;;;;19.35;3.83;;;10.60;99.90;;;;;;4154065;28;20029;-67
2023/12/11 07:49:07;;;;;;;13.45;2.60;;;10.50;99.90;;;;;;4139800;28;20038;-67
2023/12/11 07:51:19;;;;;;;17.08;3.30;;;10.50;99.90;;;;;;4139263;28;20088;-67
2023/12/11 07:53:19;;;;;;;20.73;3.42;;;10.50;99.90;;;;;;4139811;28;20449;-67
2023/12/11 07:55:20;;;;;;;15.50;3.78;;;10.50;99.90;;;;;;4137630;28;20062;-67
2023/12/11 07:57:21;;;;;;;22.73;4.30;;;10.40;99.90;;;;;;4153242;28;20447;-67
2023/12/11 07:59:21;;;;;;;19.90;3.20;;;10.40;99.90;;;;;;4134598;28;20058;-70
2023/12/11 08:01:22;;;;;;;15.95;3.38;;;10.40;99.90;;;;;;4134637;28;20440;-70
2023/12/11 08:03:22;;;;;;;21.38;3.70;;;10.40;99.90;;;;;;4138753;28;20500;-71
2023/12/11 08:05:23;;;;;;;12.48;3.30;;;10.40;99.90;;;;;;4135904;28;20052;-71
2023/12/11 08:07:23;;;;;;;26.85;4.57;;;10.40;99.90;;;;;;4127767;28;20473;-71
2023/12/11 08:09:24;;;;;;;18.25;3.53;;;10.40;99.90;;;;;;4137817;28;20053;-66
2023/12/11 08:11:25;;;;;;;18.55;3.88;;;10.50;99.90;;;;;;4135878;28;20038;-67
2023/12/11 08:13:26;;;;;;;18.67;4.00;;;10.40;99.90;;;;;;4139982;28;20049;-67
2023/12/11 08:15:26;;;;;;;20.00;3.88;;;10.40;99.90;;;;;;4136834;28;20527;-67
2023/12/11 08:17:27;;;;;;;19.15;3.45;;;10.40;99.90;;;;;;4140662;28;20449;-67
2023/12/11 08:19:28;;;;;;;19.38;4.47;;;10.40;99.90;;;;;;4136084;28;20061;-71
2023/12/11 08:21:28;;;;;;;21.83;4.07;;;10.40;99.90;;;;;;4140455;28;20746;-70
2023/12/11 08:23:29;;;;;;;18.50;3.67;;;10.40;99.90;;;;;;4136151;28;20049;-71
2023/12/11 08:25:29;;;;;;;20.20;3.78;;;10.40;99.90;;;;;;4136043;28;20030;-71
2023/12/11 08:27:30;;;;;;;16.50;4.22;;;10.40;99.90;;;;;;4136931;28;20054;-71
2023/12/11 08:29:30;;;;;;;25.60;4.35;;;10.40;99.90;;;;;;4139232;28;20040;-71
2023/12/11 08:31:31;;;;;;;18.95;3.70;;;10.40;99.90;;;;;;4138033;28;20061;-71
2023/12/11 08:33:31;;;;;;;21.58;4.10;;;10.30;99.90;;;;;;4137999;28;20062;-71
2023/12/11 08:35:32;;;;;;;17.98;3.45;;;10.40;99.90;;;;;;4141442;28;20477;-71
2023/12/11 08:37:33;;;;;;;19.15;3.47;;;10.40;99.90;;;;;;4139325;28;20108;-71
2023/12/11 08:39:34;;;;;;;19.17;4.05;;;10.40;99.90;;;;;;4154181;28;20524;-71
2023/12/11 08:41:35;;;;;;;23.58;3.25;;;10.40;99.90;;;;;;4120535;28;20023;-71
2023/12/11 08:43:36;;;;;;;17.23;3.47;;;10.40;99.90;;;;;;4142929;28;20048;-71
2023/12/11 08:45:37;;;;;;;19.73;3.95;;;10.40;99.90;;;;;;4149099;28;20397;-71
2023/12/11 08:47:41;;;;;;;14.15;3.47;;;10.40;99.90;;;;;;4140920;28;20080;-71
2023/12/11 08:49:42;;;;;;;22.95;3.72;;;10.40;99.90;;;;;;4135087;28;20053;-70
2023/12/11 08:51:43;;;;;;;23.40;3.47;;;10.40;99.90;;;;;;4131573;28;20038;-70
2023/12/11 08:53:44;;;;;;;16.83;3.13;;;10.40;99.90;;;;;;4131371;28;20068;-70
2023/12/11 08:55:44;;;;;;;26.25;4.43;;;10.30;99.90;;;;;;4139166;28;20052;-71
2023/12/11 08:57:45;;;;;;;20.33;3.50;;;10.30;99.90;;;;;;4141998;28;20049;-71
2023/12/11 08:59:46;;;;;;;19.65;4.00;;;10.40;99.90;;;;;;4129298;28;20034;-71
2023/12/11 09:01:47;;;;;;;18.23;3.58;;;10.40;99.90;;;;;;4137541;28;20046;-71
2023/12/11 09:03:48;;;;;;;14.48;2.97;;;10.40;99.90;;;;;;4139757;28;20077;-70
2023/12/11 09:05:48;;;;;;;13.35;3.13;;;10.40;99.90;;;;;;4138654;28;20475;-71
2023/12/11 09:07:49;;;;;;;21.40;3.70;;;10.40;99.90;;;;;;4139708;28;20406;-71
2023/12/11 09:09:49;;;;;;;13.93;3.28;;;10.40;99.90;;;;;;4131683;28;20038;-71
2023/12/11 09:11:51;;;;;;;15.52;3.22;;;10.40;99.90;;;;;;4133285;28;20034;-71
2023/12/11 09:13:52;;;;;;;17.70;4.00;;;10.40;99.90;;;;;;4138633;28;20093;-71
2023/12/11 09:15:52;;;;;;;14.32;3.20;;;10.40;99.90;;;;;;4137414;28;20533;-71
2023/12/11 09:17:53;;;;;;;20.52;4.20;;;10.50;99.90;;;;;;4137275;28;20100;-71
2023/12/11 09:19:53;;;;;;;13.23;3.38;;;10.40;99.90;;;;;;4136979;28;20030;-71
2023/12/11 09:21:54;;;;;;;16.70;3.50;;;10.50;99.90;;;;;;4133958;28;20082;-71
2023/12/11 09:23:55;;;;;;;22.02;3.78;;;10.40;99.90;;;;;;4137166;28;20034;-71
2023/12/11 09:25:55;;;;;;;18.23;3.40;;;10.50;99.90;;;;;;4140053;28;20380;-71
2023/12/11 09:27:56;;;;;;;14.73;3.10;;;10.50;99.90;;;;;;4140497;28;20057;-70
2023/12/11 09:29:56;;;;;;;18.33;3.75;;;10.50;99.90;;;;;;4140199;28;20037;-63
2023/12/11 09:31:57;;;;;;;17.05;3.47;;;10.50;99.90;;;;;;4129995;28;20666;-63
2023/12/11 09:33:57;;;;;;;11.52;2.85;;;10.50;99.90;;;;;;4137104;28;20037;-62
2023/12/11 09:35:59;;;;;;;15.48;3.70;;;10.50;99.90;;;;;;4139252;28;20089;-63
2023/12/11 09:38:00;;;;;;;16.17;3.53;;;10.50;99.90;;;;;;4130986;28;21042;-67
2023/12/11 09:40:00;;;;;;;11.70;3.40;;;10.50;99.90;;;;;;4135016;28;20117;-73
2023/12/11 09:42:02;;;;;;;16.95;3.35;;;10.50;99.90;;;;;;4133458;28;20038;-72
2023/12/11 09:44:03;;;;;;;22.38;3.83;;;10.50;99.90;;;;;;4134810;28;20046;-72
2023/12/11 09:46:08;;;;;;;11.95;3.10;;;10.50;99.90;;;;;;4137427;28;20085;-72
2023/12/11 09:48:09;;;;;;;18.52;3.22;;;10.50;99.90;;;;;;4138906;28;20505;-72
2023/12/11 09:50:09;;;;;;;18.88;3.70;;;10.40;99.90;;;;;;4132750;28;20699;-72
2023/12/11 09:52:10;;;;;;;12.32;3.08;;;10.40;99.90;;;;;;4139437;28;20125;-71
2023/12/11 09:54:11;;;;;;;18.83;3.40;;;10.40;99.90;;;;;;4130136;28;20042;-71
2023/12/11 09:56:12;;;;;;;19.27;3.88;;;10.40;99.90;;;;;;4136374;28;20397;-73
2023/12/11 09:58:14;;;;;;;18.88;3.75;;;10.40;99.90;;;;;;4135216;28;20123;-72
2023/12/11 10:00:15;;;;;;;13.68;3.03;;;10.30;99.90;;;;;;4131348;28;20676;-72
2023/12/11 10:02:16;;;;;;;18.55;3.13;;;10.30;99.90;;;;;;4135904;28;20036;-74
2023/12/11 10:04:17;;;;;;;12.07;3.08;;;10.30;99.90;;;;;;4136875;28;20029;-73
2023/12/11 10:06:17;;;;;;;19.05;3.10;;;10.30;99.90;;;;;;4136874;28;20481;-72
2023/12/11 10:08:18;;;;;;;10.48;2.53;;;10.20;99.90;;;;;;4135207;28;20415;-72
2023/12/11 10:10:33;;;;;;;12.02;2.97;;;10.20;99.90;;;;;;4138611;28;20049;-72
2023/12/11 10:12:40;;;;;;;11.32;2.30;;;10.30;99.90;;;;;;4139349;28;20117;-72
2023/12/11 10:14:40;;;;;;;11.45;2.70;;;10.30;99.90;;;;;;4139300;28;20029;-71
2023/12/11 10:16:42;;;;;;;9.68;2.17;;;10.30;99.90;;;;;;4137148;28;20507;-71
2023/12/11 10:18:48;;;;;;;12.32;2.60;;;10.20;99.90;;;;;;4137341;28;20129;-71
2023/12/11 10:20:53;;;;;;;12.48;2.33;;;10.30;99.90;;;;;;4139444;28;20056;-71